Time;durP1;ratioP1;P1;durP2;ratioP2;P2;SDS_P1;SDS_P2;PMS_P1;PMS_P2;Temp;Humidity;BMP_temperature;BMP_pressure;BME280_temperature;BME280_humidity;BME280_pressure;Samples;Min_cycle;Max_cycle;Signal;HPM_P1;HPM_P2
2020/12/25 00:00:13;;;;;;;;;;;7.30;80.20;;;;;;5016616;28;19929;-42
2020/12/25 00:02:41;;;;;;;;;;;7.30;80.20;;;;;;5017578;28;20004;-45
2020/12/25 00:05:07;;;;;;;;;;;7.30;80.00;;;;;;5015122;28;19925;-45
2020/12/25 00:07:34;;;;;;;;;;;7.20;80.20;;;;;;5014202;28;19991;-44
2020/12/25 00:10:01;;;;;;;;;;;7.20;80.20;;;;;;5016709;28;19925;-43
2020/12/25 00:12:27;;;;;;;;;;;7.30;80.00;;;;;;5015213;28;19929;-45
2020/12/25 00:14:54;;;;;;;;;;;7.30;79.90;;;;;;5018512;28;20352;-45
2020/12/25 00:17:21;;;;;;;;;;;7.30;80.10;;;;;;5012181;28;19932;-44
2020/12/25 00:19:48;;;;;;;;;;;7.30;79.80;;;;;;5012347;28;19933;-45
2020/12/25 00:22:16;;;;;;;;;;;7.20;79.90;;;;;;5012816;28;19929;-42
2020/12/25 00:24:43;;;;;;;;;;;7.20;80.10;;;;;;5013434;28;19984;-45
2020/12/25 00:27:11;;;;;;;;;;;7.20;79.90;;;;;;5012712;28;19930;-43
2020/12/25 00:29:38;;;;;;;;;;;7.10;79.60;;;;;;5013056;28;19983;-45
2020/12/25 00:32:06;;;;;;;;;;;7.10;79.80;;;;;;5010287;28;19931;-43
2020/12/25 00:34:33;;;;;;;;;;;7.10;80.10;;;;;;5018978;28;20267;-45
2020/12/25 00:37:00;;;;;;;;;;;7.10;80.10;;;;;;5013155;28;20020;-45
2020/12/25 00:39:31;;;;;;;;;;;7.10;79.90;;;;;;5011986;28;19976;-44
2020/12/25 00:41:58;;;;;;;;;;;7.10;79.70;;;;;;5010362;28;19930;-43
2020/12/25 00:44:24;;;;;;;;;;;7.10;79.80;;;;;;5012613;28;19925;-44
2020/12/25 00:46:52;;;;;;;;;;;7.10;79.60;;;;;;5016190;28;19932;-45
2020/12/25 00:49:21;;;;;;;;;;;7.10;79.60;;;;;;5012744;28;19924;-45
2020/12/25 00:51:48;;;;;;;;;;;7.10;79.20;;;;;;5001905;28;19935;-44
2020/12/25 00:54:15;;;;;;;;;;;7.10;78.90;;;;;;5013595;28;19933;-43
2020/12/25 00:56:42;;;;;;;;;;;7.10;79.10;;;;;;5012483;28;19925;-43
2020/12/25 00:59:09;;;;;;;;;;;7.10;79.00;;;;;;5012356;28;20197;-44
2020/12/25 01:01:37;;;;;;;;;;;7.10;78.70;;;;;;5009258;28;19948;-45
2020/12/25 01:04:13;;;;;;;;;;;7.10;78.80;;;;;;5011865;28;19929;-45
2020/12/25 01:06:42;;;;;;;;;;;7.10;78.80;;;;;;5012560;28;20374;-44
2020/12/25 01:09:10;;;;;;;;;;;7.10;78.90;;;;;;5010000;28;19932;-44
2020/12/25 01:11:39;;;;;;;;;;;7.00;78.60;;;;;;5013029;28;20020;-44
2020/12/25 01:14:11;;;;;;;;;;;7.00;78.80;;;;;;5008411;28;19936;-44
2020/12/25 01:16:38;;;;;;;;;;;7.00;79.10;;;;;;5011687;28;19929;-44
2020/12/25 01:19:05;;;;;;;;;;;6.90;78.90;;;;;;5008695;28;19926;-45
2020/12/25 01:21:32;;;;;;;;;;;6.90;79.00;;;;;;5009607;28;19926;-44
2020/12/25 01:23:59;;;;;;;;;;;6.90;78.80;;;;;;5015409;28;19939;-45
2020/12/25 01:26:28;;;;;;;;;;;6.80;78.50;;;;;;5012081;28;20371;-45
2020/12/25 01:29:01;;;;;;;;;;;6.70;78.50;;;;;;5010931;28;19925;-43
2020/12/25 01:31:31;;;;;;;;;;;6.70;78.80;;;;;;5009650;28;19929;-45
2020/12/25 01:33:59;;;;;;;;;;;6.60;78.80;;;;;;5015182;28;19933;-44
2020/12/25 01:36:26;;;;;;;;;;;6.70;79.00;;;;;;5009849;28;20014;-42
2020/12/25 01:38:54;;;;;;;;;;;6.70;78.90;;;;;;5010213;28;19925;-44
2020/12/25 01:41:21;;;;;;;;;;;6.70;78.60;;;;;;4994849;28;20028;-45
2020/12/25 01:43:49;;;;;;;;;;;6.70;78.90;;;;;;5011275;28;19929;-45
2020/12/25 01:46:16;;;;;;;;;;;6.80;78.90;;;;;;5013495;28;19935;-46
2020/12/25 01:48:50;;;;;;;;;;;6.70;79.00;;;;;;5011383;28;19925;-45
2020/12/25 01:51:19;;;;;;;;;;;6.80;78.80;;;;;;5008477;28;20370;-45
2020/12/25 01:53:47;;;;;;;;;;;6.80;78.80;;;;;;5008560;28;20024;-43
2020/12/25 01:56:15;;;;;;;;;;;6.80;78.70;;;;;;5012602;28;20024;-44
2020/12/25 01:58:42;;;;;;;;;;;6.80;78.50;;;;;;5009007;28;19935;-43
2020/12/25 02:01:10;;;;;;;;;;;6.70;78.60;;;;;;5010090;28;20008;-45
2020/12/25 02:03:38;;;;;;;;;;;6.70;78.70;;;;;;5014589;28;20328;-45
2020/12/25 02:06:05;;;;;;;;;;;6.70;78.30;;;;;;5010360;28;20012;-45
2020/12/25 02:08:32;;;;;;;;;;;6.70;78.30;;;;;;5015963;28;19932;-43
2020/12/25 02:10:59;;;;;;;;;;;6.60;78.40;;;;;;5012195;28;20389;-43
2020/12/25 02:13:29;;;;;;;;;;;6.60;78.20;;;;;;5008782;28;20366;-43
2020/12/25 02:15:59;;;;;;;;;;;6.60;78.00;;;;;;5009828;28;19933;-45
2020/12/25 02:18:37;;;;;;;;;;;6.60;77.90;;;;;;5010593;28;19972;-44
2020/12/25 02:21:08;;;;;;;;;;;6.50;77.90;;;;;;5010886;28;19938;-44
2020/12/25 02:23:35;;;;;;;;;;;6.50;77.90;;;;;;5011478;28;19933;-43
2020/12/25 02:26:03;;;;;;;;;;;6.50;77.70;;;;;;5013933;28;20344;-45
2020/12/25 02:28:30;;;;;;;;;;;6.50;77.60;;;;;;5014073;28;19952;-43
2020/12/25 02:30:57;;;;;;;;;;;6.50;77.90;;;;;;5008810;28;19945;-45
2020/12/25 02:33:26;;;;;;;;;;;6.50;77.80;;;;;;5013153;28;19933;-44
2020/12/25 02:35:53;;;;;;;;;;;6.50;77.70;;;;;;5015925;28;20031;-44
2020/12/25 02:38:21;;;;;;;;;;;6.50;77.30;;;;;;5011928;28;20348;-43
2020/12/25 02:40:48;;;;;;;;;;;6.40;77.50;;;;;;5013447;28;19933;-44
2020/12/25 02:43:16;;;;;;;;;;;6.40;77.50;;;;;;5017574;28;20403;-44
2020/12/25 02:45:43;;;;;;;;;;;6.40;77.60;;;;;;5014923;28;19925;-44
2020/12/25 02:48:10;;;;;;;;;;;6.40;77.20;;;;;;5008951;28;20346;-44
2020/12/25 02:50:38;;;;;;;;;;;6.50;77.40;;;;;;5014610;28;20356;-45
2020/12/25 02:53:05;;;;;;;;;;;6.50;77.20;;;;;;5017806;28;19926;-45
2020/12/25 02:55:33;;;;;;;;;;;6.40;77.60;;;;;;5013948;28;19925;-44
2020/12/25 02:58:03;;;;;;;;;;;6.40;77.80;;;;;;5015172;28;19960;-43
2020/12/25 03:00:31;;;;;;;;;;;6.40;77.70;;;;;;5014778;28;19960;-45
2020/12/25 03:03:01;;;;;;;;;;;6.40;77.60;;;;;;5012072;28;20381;-44
2020/12/25 03:05:32;;;;;;;;;;;6.40;77.40;;;;;;5016437;28;20372;-44
2020/12/25 03:08:00;;;;;;;;;;;6.30;77.20;;;;;;5010066;28;19929;-45
2020/12/25 03:10:27;;;;;;;;;;;6.40;77.10;;;;;;5012332;28;20385;-44
2020/12/25 03:12:55;;;;;;;;;;;6.30;77.00;;;;;;5009924;28;19972;-44
2020/12/25 03:15:25;;;;;;;;;;;6.20;76.60;;;;;;5014079;28;20381;-45
2020/12/25 03:17:52;;;;;;;;;;;6.20;77.30;;;;;;5015418;28;19932;-45
2020/12/25 03:20:19;;;;;;;;;;;6.10;77.00;;;;;;5014631;28;19925;-45
2020/12/25 03:22:47;;;;;;;;;;;6.10;77.40;;;;;;5020456;28;19975;-44
2020/12/25 03:25:14;;;;;;;;;;;6.10;77.50;;;;;;5009703;28;19999;-44
2020/12/25 03:27:42;;;;;;;;;;;6.10;77.50;;;;;;5023134;28;19956;-44
2020/12/25 03:30:09;;;;;;;;;;;6.10;77.50;;;;;;5007906;28;19988;-42
2020/12/25 03:32:40;;;;;;;;;;;6.10;77.50;;;;;;5008893;28;19983;-45
2020/12/25 03:35:24;;;;;;;;;;;6.10;77.30;;;;;;5013745;28;19929;-44
2020/12/25 03:37:51;;;;;;;;;;;6.10;77.20;;;;;;5013032;28;19932;-44
2020/12/25 03:40:19;;;;;;;;;;;6.10;77.40;;;;;;5020596;28;19975;-45
2020/12/25 03:42:47;;;;;;;;;;;6.10;77.60;;;;;;5015198;28;19934;-45
2020/12/25 03:45:14;;;;;;;;;;;6.10;77.70;;;;;;5014606;28;19929;-44
2020/12/25 03:47:41;;;;;;;;;;;6.10;78.00;;;;;;5013163;28;19925;-44
2020/12/25 03:50:08;;;;;;;;;;;6.10;78.10;;;;;;5012424;28;19926;-43
2020/12/25 03:52:36;;;;;;;;;;;6.10;78.20;;;;;;5010670;28;19930;-45
2020/12/25 03:55:03;;;;;;;;;;;6.10;78.10;;;;;;5013095;28;19965;-44
2020/12/25 03:57:30;;;;;;;;;;;6.10;78.00;;;;;;5014258;28;20434;-45
2020/12/25 03:59:57;;;;;;;;;;;6.10;78.20;;;;;;5010896;28;19929;-43
2020/12/25 04:02:25;;;;;;;;;;;6.10;78.20;;;;;;5013905;28;19933;-45
2020/12/25 04:04:52;;;;;;;;;;;6.10;78.50;;;;;;5010575;28;19935;-45
2020/12/25 04:07:19;;;;;;;;;;;6.10;78.80;;;;;;5002077;28;19949;-45
2020/12/25 04:09:47;;;;;;;;;;;6.10;78.90;;;;;;5012813;28;19951;-45
2020/12/25 04:12:14;;;;;;;;;;;6.10;79.10;;;;;;5011750;28;19929;-45
2020/12/25 04:14:44;;;;;;;;;;;6.10;79.20;;;;;;5013405;28;19947;-45
2020/12/25 04:17:12;;;;;;;;;;;6.10;79.40;;;;;;5010521;28;19932;-44
2020/12/25 04:19:39;;;;;;;;;;;6.10;79.40;;;;;;5013842;28;20055;-43
2020/12/25 04:22:07;;;;;;;;;;;6.10;79.10;;;;;;5013131;28;19964;-44
2020/12/25 04:24:34;;;;;;;;;;;6.20;78.80;;;;;;5009346;28;20365;-44
2020/12/25 04:27:04;;;;;;;;;;;6.20;78.90;;;;;;5019235;28;19979;-45
2020/12/25 04:29:32;;;;;;;;;;;6.20;78.90;;;;;;5013006;28;19944;-44
2020/12/25 04:32:02;;;;;;;;;;;6.20;78.80;;;;;;5014619;28;19937;-43
2020/12/25 04:34:29;;;;;;;;;;;6.20;78.60;;;;;;5015592;28;19925;-45
2020/12/25 04:36:56;;;;;;;;;;;6.20;78.80;;;;;;5012963;28;19932;-44
2020/12/25 04:39:23;;;;;;;;;;;6.30;78.50;;;;;;5012544;28;20362;-45
2020/12/25 04:41:51;;;;;;;;;;;6.30;78.40;;;;;;5015240;28;20381;-45
2020/12/25 04:44:19;;;;;;;;;;;6.30;78.50;;;;;;5017571;28;20333;-45
2020/12/25 04:46:46;;;;;;;;;;;6.30;78.30;;;;;;5011962;28;19925;-45
2020/12/25 04:49:14;;;;;;;;;;;6.30;78.20;;;;;;5011471;28;19929;-43
2020/12/25 04:51:42;;;;;;;;;;;6.40;78.00;;;;;;5017876;28;19925;-45
2020/12/25 04:54:10;;;;;;;;;;;6.40;77.50;;;;;;5014664;28;19929;-45
2020/12/25 04:56:38;;;;;;;;;;;6.40;77.70;;;;;;5012080;28;20068;-46
2020/12/25 04:59:06;;;;;;;;;;;6.40;77.40;;;;;;5012909;28;20019;-42
2020/12/25 05:01:38;;;;;;;;;;;6.40;77.60;;;;;;5011061;28;19936;-45
2020/12/25 05:04:17;;;;;;;;;;;6.40;77.70;;;;;;5009561;28;19930;-45
2020/12/25 05:06:52;;;;;;;;;;;6.40;77.50;;;;;;5011434;28;19925;-42
2020/12/25 05:09:22;;;;;;;;;;;6.40;77.60;;;;;;5010365;28;19930;-45
2020/12/25 05:11:54;;;;;;;;;;;6.40;78.00;;;;;;5013136;28;19925;-45
2020/12/25 05:14:28;;;;;;;;;;;6.50;77.70;;;;;;5010782;28;19926;-42
2020/12/25 05:16:59;;;;;;;;;;;6.50;76.70;;;;;;5007675;28;19925;-44
2020/12/25 05:19:27;;;;;;;;;;;6.50;77.00;;;;;;5009524;28;20004;-46
2020/12/25 05:21:56;;;;;;;;;;;6.50;76.80;;;;;;5007611;28;19929;-45
2020/12/25 05:24:23;;;;;;;;;;;6.50;76.80;;;;;;5012050;28;19925;-45
2020/12/25 05:26:54;;;;;;;;;;;6.50;77.00;;;;;;5014079;28;19925;-44
2020/12/25 05:29:25;;;;;;;;;;;6.50;77.10;;;;;;5009081;28;19925;-44
2020/12/25 05:31:53;;;;;;;;;;;6.50;77.20;;;;;;5011754;28;19959;-45
2020/12/25 05:34:21;;;;;;;;;;;6.50;77.60;;;;;;5012136;28;19952;-45
2020/12/25 05:37:07;;;;;;;;;;;6.50;77.60;;;;;;5011273;28;19939;-45
2020/12/25 05:39:35;;;;;;;;;;;6.50;76.60;;;;;;5007768;28;20646;-44
2020/12/25 05:42:07;;;;;;;;;;;6.50;76.70;;;;;;5013534;28;20007;-42
2020/12/25 05:44:40;;;;;;;;;;;6.50;77.10;;;;;;5008664;28;19929;-45
2020/12/25 05:47:08;;;;;;;;;;;6.50;77.00;;;;;;5005362;28;20339;-43
2020/12/25 05:49:35;;;;;;;;;;;6.50;77.00;;;;;;5010951;28;20404;-45
2020/12/25 05:52:03;;;;;;;;;;;6.50;76.90;;;;;;5009939;28;19930;-44
2020/12/25 05:54:31;;;;;;;;;;;6.50;76.60;;;;;;5009837;28;19925;-44
2020/12/25 05:56:58;;;;;;;;;;;6.50;76.50;;;;;;5011810;28;20273;-44
2020/12/25 05:59:26;;;;;;;;;;;6.50;76.40;;;;;;5009761;28;19925;-44
2020/12/25 06:01:57;;;;;;;;;;;6.50;76.10;;;;;;5013207;28;19980;-45
2020/12/25 06:04:33;;;;;;;;;;;6.40;76.00;;;;;;5009329;28;20016;-43
2020/12/25 06:07:01;;;;;;;;;;;6.50;76.10;;;;;;5010444;28;20019;-44
2020/12/25 06:09:29;;;;;;;;;;;6.50;76.30;;;;;;5009322;28;19932;-44
2020/12/25 06:11:57;;;;;;;;;;;6.50;76.30;;;;;;5013088;28;19925;-45
2020/12/25 06:14:25;;;;;;;;;;;6.50;76.50;;;;;;5006458;28;20023;-45
2020/12/25 06:16:56;;;;;;;;;;;6.40;76.70;;;;;;5008953;28;19933;-45
2020/12/25 06:19:29;;;;;;;;;;;6.40;75.50;;;;;;5008615;28;19929;-45
2020/12/25 06:21:57;;;;;;;;;;;6.40;75.80;;;;;;5011388;28;19929;-45
2020/12/25 06:24:33;;;;;;;;;;;6.40;75.60;;;;;;5016124;28;19925;-42
2020/12/25 06:27:01;;;;;;;;;;;6.40;75.30;;;;;;5016902;28;20388;-44
2020/12/25 06:29:28;;;;;;;;;;;6.40;75.40;;;;;;5013773;28;20313;-44
2020/12/25 06:31:57;;;;;;;;;;;6.40;75.20;;;;;;5015214;28;20560;-45
2020/12/25 06:34:43;;;;;;;;;;;6.40;75.30;;;;;;5014015;28;19933;-45
2020/12/25 06:37:13;;;;;;;;;;;6.40;75.50;;;;;;5015389;28;20003;-44
2020/12/25 06:39:53;;;;;;;;;;;6.40;74.50;;;;;;5015783;28;19932;-44
2020/12/25 06:42:32;;;;;;;;;;;6.40;74.60;;;;;;5016348;28;21084;-41
2020/12/25 06:45:00;;;;;;;;;;;6.40;74.30;;;;;;5015816;28;19929;-44
2020/12/25 06:47:28;;;;;;;;;;;6.30;73.80;;;;;;5013963;28;19968;-42
2020/12/25 06:49:57;;;;;;;;;;;6.30;73.60;;;;;;5016561;28;19936;-44
2020/12/25 06:52:24;;;;;;;;;;;6.30;73.70;;;;;;5016177;28;19964;-46
2020/12/25 06:54:51;;;;;;;;;;;6.30;73.80;;;;;;5015312;28;19970;-44
2020/12/25 06:57:22;;;;;;;;;;;6.20;72.80;;;;;;5017515;28;20023;-44
2020/12/25 06:59:51;;;;;;;;;;;6.20;73.40;;;;;;5016824;28;19933;-45
2020/12/25 07:02:21;;;;;;;;;;;6.20;73.10;;;;;;5013729;28;19933;-45
2020/12/25 07:04:59;;;;;;;;;;;6.20;72.70;;;;;;5013046;28;19929;-44
2020/12/25 07:07:30;;;;;;;;;;;6.20;72.70;;;;;;5015246;28;19962;-42
2020/12/25 07:10:05;;;;;;;;;;;6.20;73.20;;;;;;5015790;28;19939;-42
2020/12/25 07:12:34;;;;;;;;;;;6.20;73.50;;;;;;5015111;28;19967;-43
2020/12/25 07:15:01;;;;;;;;;;;6.20;73.40;;;;;;5014974;28;19933;-45
2020/12/25 07:17:29;;;;;;;;;;;6.20;73.70;;;;;;5015892;28;19969;-45
2020/12/25 07:19:57;;;;;;;;;;;6.20;73.40;;;;;;5008617;28;20665;-43
2020/12/25 07:22:24;;;;;;;;;;;6.20;73.50;;;;;;5010197;28;19952;-44
2020/12/25 07:24:55;;;;;;;;;;;6.20;73.20;;;;;;5015324;28;20384;-45
2020/12/25 07:27:22;;;;;;;;;;;6.20;73.20;;;;;;5011849;28;19929;-45
2020/12/25 07:29:50;;;;;;;;;;;6.20;73.30;;;;;;5014558;28;20389;-44
2020/12/25 07:32:17;;;;;;;;;;;6.20;73.10;;;;;;5015689;28;19925;-45
2020/12/25 07:34:44;;;;;;;;;;;6.20;72.90;;;;;;5000512;28;20278;-44
2020/12/25 07:37:12;;;;;;;;;;;6.20;73.20;;;;;;4992718;28;20523;-45
2020/12/25 07:39:39;;;;;;;;;;;6.10;73.50;;;;;;4994386;28;20079;-45
2020/12/25 07:42:07;;;;;;;;;;;6.10;73.50;;;;;;4998862;28;19948;-44
2020/12/25 07:44:35;;;;;;;;;;;6.20;73.50;;;;;;4996571;28;19930;-45
2020/12/25 07:47:02;;;;;;;;;;;6.20;73.40;;;;;;4996597;28;19926;-44
2020/12/25 07:49:30;;;;;;;;;;;6.10;73.30;;;;;;4995761;28;20393;-45
2020/12/25 07:51:58;;;;;;;;;;;6.10;73.10;;;;;;4993317;28;19999;-45
2020/12/25 07:54:26;;;;;;;;;;;6.10;73.10;;;;;;4995388;28;20366;-45
2020/12/25 07:56:53;;;;;;;;;;;6.10;72.90;;;;;;4993274;28;20369;-45
2020/12/25 07:59:21;;;;;;;;;;;6.00;73.10;;;;;;4989855;28;19925;-45
2020/12/25 08:01:48;;;;;;;;;;;6.00;73.30;;;;;;4994380;28;19983;-44
2020/12/25 08:04:15;;;;;;;;;;;6.00;73.30;;;;;;4993366;28;19965;-44
2020/12/25 08:06:42;;;;;;;;;;;6.00;72.80;;;;;;4995628;28;19929;-45
2020/12/25 08:09:10;;;;;;;;;;;6.10;72.20;;;;;;4993082;28;20277;-43
2020/12/25 08:11:38;;;;;;;;;;;6.10;72.00;;;;;;5012481;28;20365;-44
2020/12/25 08:14:06;;;;;;;;;;;6.00;72.30;;;;;;5013738;28;19941;-44
2020/12/25 08:16:37;;;;;;;;;;;6.00;72.30;;;;;;5013132;28;19925;-44
2020/12/25 08:19:05;;;;;;;;;;;6.00;72.40;;;;;;5011597;28;19925;-44
2020/12/25 08:21:38;;;;;;;;;;;6.00;72.70;;;;;;5013145;28;20328;-45
2020/12/25 08:24:07;;;;;;;;;;;5.90;72.90;;;;;;5011929;28;20338;-45
2020/12/25 08:26:38;;;;;;;;;;;5.90;72.70;;;;;;5013865;28;19926;-43
2020/12/25 08:29:06;;;;;;;;;;;6.00;72.30;;;;;;5015834;28;20328;-44
2020/12/25 08:31:34;;;;;;;;;;;5.90;73.10;;;;;;5014097;28;20024;-45
2020/12/25 08:34:03;;;;;;;;;;;6.00;72.30;;;;;;5012859;28;19932;-43
2020/12/25 08:36:30;;;;;;;;;;;6.00;72.40;;;;;;5010455;28;19929;-45
2020/12/25 08:39:07;;;;;;;;;;;6.10;72.60;;;;;;5009553;28;20292;-45
2020/12/25 08:41:34;;;;;;;;;;;6.10;72.40;;;;;;5008851;28;19925;-44
2020/12/25 08:44:13;;;;;;;;;;;6.10;72.50;;;;;;5008177;28;19964;-45
2020/12/25 08:46:44;;;;;;;;;;;6.10;72.20;;;;;;5010239;28;19952;-43
2020/12/25 08:49:11;;;;;;;;;;;6.20;72.30;;;;;;5011052;28;19929;-45
2020/12/25 08:51:39;;;;;;;;;;;6.20;72.00;;;;;;5011116;28;19940;-44
2020/12/25 08:54:07;;;;;;;;;;;6.20;72.00;;;;;;5012759;28;19929;-45
2020/12/25 08:56:35;;;;;;;;;;;6.20;72.20;;;;;;5013670;28;20340;-44
2020/12/25 08:59:02;;;;;;;;;;;6.10;72.20;;;;;;5013613;28;19925;-44
2020/12/25 09:01:31;;;;;;;;;;;6.10;72.40;;;;;;5014713;28;19940;-46
2020/12/25 09:03:58;;;;;;;;;;;6.10;72.30;;;;;;5011034;28;20009;-45
2020/12/25 09:06:27;;;;;;;;;;;6.10;71.80;;;;;;5011804;28;20018;-45
2020/12/25 09:08:55;;;;;;;;;;;6.10;72.00;;;;;;5014203;28;19925;-42
2020/12/25 09:11:23;;;;;;;;;;;6.00;71.50;;;;;;5013844;28;19943;-45
2020/12/25 09:13:54;;;;;;;;;;;6.00;72.20;;;;;;5012244;28;19932;-44
2020/12/25 09:16:22;;;;;;;;;;;6.00;72.60;;;;;;5010154;28;20381;-45
2020/12/25 09:18:49;;;;;;;;;;;6.00;72.40;;;;;;5009144;28;20331;-45
2020/12/25 09:21:17;;;;;;;;;;;6.10;72.00;;;;;;5015561;28;19933;-44
2020/12/25 09:23:44;;;;;;;;;;;6.10;71.90;;;;;;5014470;28;19951;-44
2020/12/25 09:26:13;;;;;;;;;;;6.00;71.20;;;;;;5010420;28;19964;-45
2020/12/25 09:28:40;;;;;;;;;;;6.00;71.10;;;;;;5014730;28;19933;-45
2020/12/25 09:31:09;;;;;;;;;;;6.00;70.90;;;;;;5012839;28;19925;-45
2020/12/25 09:33:36;;;;;;;;;;;6.00;71.30;;;;;;5013044;28;19933;-45
2020/12/25 09:36:05;;;;;;;;;;;6.00;71.60;;;;;;5014376;28;20351;-45
2020/12/25 09:38:32;;;;;;;;;;;6.00;71.20;;;;;;5013686;28;19932;-45
2020/12/25 09:41:00;;;;;;;;;;;6.00;71.20;;;;;;5008594;28;19957;-42
2020/12/25 09:43:31;;;;;;;;;;;6.00;71.20;;;;;;5009891;28;20293;-45
2020/12/25 09:45:58;;;;;;;;;;;6.00;71.10;;;;;;5009040;28;20007;-45
2020/12/25 09:48:26;;;;;;;;;;;6.00;70.80;;;;;;5010168;28;19933;-45
2020/12/25 09:50:54;;;;;;;;;;;6.00;70.90;;;;;;5012709;28;19928;-46
2020/12/25 09:53:21;;;;;;;;;;;6.00;70.60;;;;;;5009481;28;20416;-43
2020/12/25 09:55:50;;;;;;;;;;;6.10;71.00;;;;;;5007856;28;20003;-45
2020/12/25 09:58:17;;;;;;;;;;;6.20;70.00;;;;;;5009432;28;20300;-45
2020/12/25 10:00:45;;;;;;;;;;;6.20;69.60;;;;;;5010257;28;19968;-45
2020/12/25 10:03:12;;;;;;;;;;;6.30;69.80;;;;;;5010199;28;20294;-45
2020/12/25 10:05:41;;;;;;;;;;;6.40;68.80;;;;;;5010781;28;19971;-47
2020/12/25 10:08:09;;;;;;;;;;;6.50;69.00;;;;;;5012432;28;19975;-44
2020/12/25 10:10:36;;;;;;;;;;;6.60;69.50;;;;;;4996038;28;20349;-46
2020/12/25 10:13:05;;;;;;;;;;;6.70;68.80;;;;;;5007828;28;20335;-45
2020/12/25 10:15:35;;;;;;;;;;;6.70;68.20;;;;;;5008171;28;19932;-45
2020/12/25 10:18:03;;;;;;;;;;;6.80;68.20;;;;;;5007823;28;19932;-45
2020/12/25 10:20:30;;;;;;;;;;;6.90;66.40;;;;;;5008756;28;19929;-44
2020/12/25 10:22:57;;;;;;;;;;;6.90;66.10;;;;;;5008556;28;20483;-46
2020/12/25 10:25:24;;;;;;;;;;;6.90;66.00;;;;;;5013480;28;19979;-45
2020/12/25 10:27:52;;;;;;;;;;;6.90;66.10;;;;;;5010918;28;19926;-46
2020/12/25 10:30:19;;;;;;;;;;;6.90;66.40;;;;;;5007451;28;19926;-44
2020/12/25 10:32:46;;;;;;;;;;;7.00;65.70;;;;;;5010131;28;19925;-45
2020/12/25 10:35:14;;;;;;;;;;;6.90;65.40;;;;;;5009295;28;20012;-45
2020/12/25 10:37:41;;;;;;;;;;;6.90;65.70;;;;;;5010267;28;20406;-44
2020/12/25 10:40:28;;;;;;;;;;;6.90;65.00;;;;;;5012945;28;19973;-46
2020/12/25 10:42:55;;;;;;;;;;;6.90;65.30;;;;;;5008383;28;19952;-44
2020/12/25 10:45:22;;;;;;;;;;;6.80;65.60;;;;;;5009422;28;20011;-45
2020/12/25 10:47:50;;;;;;;;;;;6.70;66.00;;;;;;5009919;28;20464;-43
2020/12/25 10:50:17;;;;;;;;;;;6.70;65.80;;;;;;5010277;28;20015;-45
2020/12/25 10:52:44;;;;;;;;;;;6.60;65.00;;;;;;5013704;28;20377;-44
2020/12/25 10:55:12;;;;;;;;;;;6.60;65.70;;;;;;5012850;28;19933;-44
2020/12/25 10:57:38;;;;;;;;;;;6.60;66.30;;;;;;5012198;28;19975;-45
2020/12/25 11:00:08;;;;;;;;;;;6.50;66.50;;;;;;5014645;28;19951;-45
2020/12/25 11:02:35;;;;;;;;;;;6.50;67.00;;;;;;5015603;28;20292;-44
2020/12/25 11:05:01;;;;;;;;;;;6.50;66.40;;;;;;5015243;28;19929;-45
2020/12/25 11:07:28;;;;;;;;;;;6.50;65.90;;;;;;5016550;28;19976;-45
2020/12/25 11:09:55;;;;;;;;;;;6.50;66.10;;;;;;5017305;28;19939;-43
2020/12/25 11:12:22;;;;;;;;;;;6.50;66.60;;;;;;5016991;28;19933;-44
2020/12/25 11:14:49;;;;;;;;;;;6.50;66.50;;;;;;5016758;28;19983;-45
2020/12/25 11:17:19;;;;;;;;;;;6.50;66.50;;;;;;5018493;28;21887;-44
2020/12/25 11:19:46;;;;;;;;;;;6.60;66.30;;;;;;5018222;28;20342;-45
2020/12/25 11:22:16;;;;;;;;;;;6.60;65.80;;;;;;5019136;28;19926;-45
2020/12/25 11:24:43;;;;;;;;;;;6.50;65.90;;;;;;5019594;28;19991;-45
2020/12/25 11:27:10;;;;;;;;;;;6.50;66.00;;;;;;5018157;28;20015;-45
2020/12/25 11:29:37;;;;;;;;;;;6.50;65.80;;;;;;5018449;28;20313;-45
2020/12/25 11:32:07;;;;;;;;;;;6.50;65.60;;;;;;5018579;28;20341;-45
2020/12/25 11:34:35;;;;;;;;;;;6.50;66.20;;;;;;5019849;28;19929;-45
2020/12/25 11:37:01;;;;;;;;;;;6.50;65.60;;;;;;5016689;28;19979;-44
2020/12/25 11:39:28;;;;;;;;;;;6.60;65.40;;;;;;5016505;28;20320;-45
2020/12/25 11:41:55;;;;;;;;;;;6.60;66.00;;;;;;5019481;28;20008;-42
2020/12/25 11:44:22;;;;;;;;;;;6.50;66.00;;;;;;5015605;28;19926;-43
2020/12/25 11:46:48;;;;;;;;;;;6.60;66.30;;;;;;5019355;28;19925;-45
2020/12/25 11:49:15;;;;;;;;;;;6.50;66.30;;;;;;5017790;28;20274;-45
2020/12/25 11:51:44;;;;;;;;;;;6.50;65.90;;;;;;5014920;28;19972;-45
2020/12/25 11:54:11;;;;;;;;;;;6.50;64.50;;;;;;5028821;28;20023;-45
2020/12/25 11:56:38;;;;;;;;;;;6.60;64.30;;;;;;5015677;28;19960;-45
2020/12/25 11:59:05;;;;;;;;;;;6.60;64.70;;;;;;5009853;28;20528;-43
2020/12/25 12:01:35;;;;;;;;;;;6.60;65.20;;;;;;5013870;28;19929;-45
2020/12/25 12:04:02;;;;;;;;;;;6.60;65.70;;;;;;5012116;28;19929;-43
2020/12/25 12:06:29;;;;;;;;;;;6.60;64.80;;;;;;5015464;28;19929;-45
2020/12/25 12:08:56;;;;;;;;;;;6.60;64.70;;;;;;5014320;28;19933;-44
2020/12/25 12:11:30;;;;;;;;;;;6.60;64.50;;;;;;5014886;28;19980;-45
2020/12/25 12:13:57;;;;;;;;;;;6.70;65.10;;;;;;5015288;28;20013;-44
2020/12/25 12:16:25;;;;;;;;;;;6.70;63.40;;;;;;5014755;28;19932;-45
2020/12/25 12:18:53;;;;;;;;;;;6.70;63.50;;;;;;5013196;28;19925;-42
2020/12/25 12:21:24;;;;;;;;;;;6.70;63.50;;;;;;5011492;28;20010;-44
2020/12/25 12:23:52;;;;;;;;;;;6.70;62.90;;;;;;5010145;28;19936;-44
2020/12/25 12:26:19;;;;;;;;;;;6.70;61.90;;;;;;5011041;28;19933;-46
2020/12/25 12:28:47;;;;;;;;;;;6.80;62.20;;;;;;5008208;28;19952;-44
2020/12/25 12:31:19;;;;;;;;;;;6.80;62.90;;;;;;5011847;28;20583;-44
2020/12/25 12:33:48;;;;;;;;;;;6.80;63.30;;;;;;5014797;28;20242;-45
2020/12/25 12:36:15;;;;;;;;;;;6.80;62.90;;;;;;5011676;28;19934;-43
2020/12/25 12:38:43;;;;;;;;;;;6.90;62.10;;;;;;5015439;28;19979;-46
2020/12/25 12:41:10;;;;;;;;;;;6.90;62.80;;;;;;5015348;28;20086;-46
2020/12/25 12:43:38;;;;;;;;;;;6.90;62.10;;;;;;5016156;28;19925;-45
2020/12/25 12:46:06;;;;;;;;;;;6.90;62.40;;;;;;5010618;28;20476;-45
2020/12/25 12:48:36;;;;;;;;;;;6.90;63.10;;;;;;5012404;28;20274;-43
2020/12/25 12:51:05;;;;;;;;;;;6.90;63.70;;;;;;5009623;28;19964;-45
2020/12/25 12:53:34;;;;;;;;;;;7.00;63.40;;;;;;5011347;28;19936;-44
2020/12/25 12:56:01;;;;;;;;;;;7.00;62.10;;;;;;5012871;28;20354;-44
2020/12/25 12:58:29;;;;;;;;;;;7.00;62.70;;;;;;5013165;28;19929;-44
2020/12/25 13:00:58;;;;;;;;;;;7.00;62.20;;;;;;5016141;28;19933;-45
2020/12/25 13:03:24;;;;;;;;;;;7.00;63.00;;;;;;5014977;28;19999;-45
2020/12/25 13:05:52;;;;;;;;;;;7.10;63.10;;;;;;5011377;28;19925;-45
2020/12/25 13:08:20;;;;;;;;;;;7.10;63.00;;;;;;5012858;28;20008;-44
2020/12/25 13:10:48;;;;;;;;;;;7.10;62.60;;;;;;5015252;28;19971;-46
2020/12/25 13:13:15;;;;;;;;;;;7.10;62.80;;;;;;5012481;28;19925;-43
2020/12/25 13:15:44;;;;;;;;;;;7.10;62.70;;;;;;5015565;28;19925;-42
2020/12/25 13:18:12;;;;;;;;;;;7.20;62.40;;;;;;5013431;28;19929;-43
2020/12/25 13:20:41;;;;;;;;;;;7.20;61.80;;;;;;5014481;28;20464;-42
2020/12/25 13:23:08;;;;;;;;;;;7.20;61.70;;;;;;5015552;28;19933;-46
2020/12/25 13:25:38;;;;;;;;;;;7.30;62.20;;;;;;5013207;28;19925;-43
2020/12/25 13:28:06;;;;;;;;;;;7.30;62.90;;;;;;5013420;28;20292;-46
2020/12/25 13:30:34;;;;;;;;;;;7.30;62.30;;;;;;5009990;28;20290;-43
2020/12/25 13:33:02;;;;;;;;;;;7.40;62.60;;;;;;5009763;28;20377;-45
2020/12/25 13:35:30;;;;;;;;;;;7.40;62.40;;;;;;5010651;28;19925;-47
2020/12/25 13:37:57;;;;;;;;;;;7.40;62.30;;;;;;5014354;28;19925;-46
2020/12/25 13:40:24;;;;;;;;;;;7.40;62.20;;;;;;5014296;28;19925;-44
2020/12/25 13:42:52;;;;;;;;;;;7.40;61.80;;;;;;5010748;28;19925;-43
2020/12/25 13:45:19;;;;;;;;;;;7.40;62.00;;;;;;5013220;28;19948;-46
2020/12/25 13:47:46;;;;;;;;;;;7.40;62.30;;;;;;5008240;28;19984;-46
2020/12/25 13:50:13;;;;;;;;;;;7.40;62.40;;;;;;5011616;28;19948;-45
2020/12/25 13:52:40;;;;;;;;;;;7.40;62.40;;;;;;5011931;28;20386;-45
2020/12/25 13:55:10;;;;;;;;;;;7.40;62.70;;;;;;5013847;28;20362;-43
2020/12/25 13:57:37;;;;;;;;;;;7.40;62.70;;;;;;5010729;28;19933;-44
2020/12/25 14:00:05;;;;;;;;;;;7.40;62.50;;;;;;5008613;28;20392;-45
2020/12/25 14:02:36;;;;;;;;;;;7.40;62.60;;;;;;5010958;28;19929;-46
2020/12/25 14:05:03;;;;;;;;;;;7.40;62.50;;;;;;5016139;28;19935;-45
2020/12/25 14:07:31;;;;;;;;;;;7.40;62.60;;;;;;5010319;28;19933;-45
2020/12/25 14:09:59;;;;;;;;;;;7.50;62.30;;;;;;5011351;28;20040;-43
2020/12/25 14:12:43;;;;;;;;;;;7.40;61.90;;;;;;5010515;28;20020;-46
2020/12/25 14:15:10;;;;;;;;;;;7.40;62.10;;;;;;5007747;28;20049;-46
2020/12/25 14:17:37;;;;;;;;;;;7.40;61.80;;;;;;5009943;28;19925;-45
2020/12/25 14:20:05;;;;;;;;;;;7.40;63.00;;;;;;5018561;28;20016;-43
2020/12/25 14:22:32;;;;;;;;;;;7.40;62.00;;;;;;5008543;28;19929;-45
2020/12/25 14:25:01;;;;;;;;;;;7.40;62.50;;;;;;5008309;28;20439;-43
2020/12/25 14:27:28;;;;;;;;;;;7.30;62.40;;;;;;5006875;28;19929;-45
2020/12/25 14:29:55;;;;;;;;;;;7.30;62.60;;;;;;5013411;28;20044;-45
2020/12/25 14:32:24;;;;;;;;;;;7.30;62.80;;;;;;5013877;28;19935;-44
2020/12/25 14:34:51;;;;;;;;;;;7.30;62.80;;;;;;5009269;28;20004;-43
2020/12/25 14:37:19;;;;;;;;;;;7.30;62.80;;;;;;5007325;28;20528;-45